sensor_id;sensor_type;location;lat;lon;timestamp;P1;durP1;ratioP1;P2;durP2;ratioP2
26951;SDS011;14507;52.418;13.398;2024-01-16T00:01:05;10.85;;;3.15;;
26951;SDS011;14507;52.418;13.398;2024-01-16T00:03:31;7.97;;;2.78;;
26951;SDS011;14507;52.418;13.398;2024-01-16T00:05:57;9.63;;;2.50;;
26951;SDS011;14507;52.418;13.398;2024-01-16T00:08:23;7.35;;;2.10;;
26951;SDS011;14507;52.418;13.398;2024-01-16T00:10:48;6.75;;;2.53;;
26951;SDS011;14507;52.418;13.398;2024-01-16T00:13:15;10.70;;;2.40;;
26951;SDS011;14507;52.418;13.398;2024-01-16T00:15:41;5.82;;;2.10;;
26951;SDS011;14507;52.418;13.398;2024-01-16T00:18:07;7.80;;;2.30;;
26951;SDS011;14507;52.418;13.398;2024-01-16T00:20:33;6.55;;;2.50;;
26951;SDS011;14507;52.418;13.398;2024-01-16T00:22:59;9.27;;;2.58;;
26951;SDS011;14507;52.418;13.398;2024-01-16T00:25:25;9.30;;;2.88;;
26951;SDS011;14507;52.418;13.398;2024-01-16T00:27:51;10.02;;;3.10;;
26951;SDS011;14507;52.418;13.398;2024-01-16T00:30:17;10.95;;;2.88;;
26951;SDS011;14507;52.418;13.398;2024-01-16T00:32:43;8.70;;;2.50;;
26951;SDS011;14507;52.418;13.398;2024-01-16T00:35:09;9.80;;;3.15;;
26951;SDS011;14507;52.418;13.398;2024-01-16T00:37:37;11.68;;;3.00;;
26951;SDS011;14507;52.418;13.398;2024-01-16T00:40:03;9.05;;;2.42;;
26951;SDS011;14507;52.418;13.398;2024-01-16T00:42:32;10.30;;;3.00;;
26951;SDS011;14507;52.418;13.398;2024-01-16T00:44:58;13.07;;;2.80;;
26951;SDS011;14507;52.418;13.398;2024-01-16T00:47:24;8.48;;;3.00;;
26951;SDS011;14507;52.418;13.398;2024-01-16T00:49:50;10.90;;;2.70;;
26951;SDS011;14507;52.418;13.398;2024-01-16T00:52:15;6.55;;;2.33;;
26951;SDS011;14507;52.418;13.398;2024-01-16T00:54:42;8.98;;;2.80;;
26951;SDS011;14507;52.418;13.398;2024-01-16T00:57:08;7.65;;;3.17;;
26951;SDS011;14507;52.418;13.398;2024-01-16T00:59:33;7.25;;;2.78;;
26951;SDS011;14507;52.418;13.398;2024-01-16T01:01:59;9.50;;;2.50;;
26951;SDS011;14507;52.418;13.398;2024-01-16T01:04:25;6.22;;;2.67;;
26951;SDS011;14507;52.418;13.398;2024-01-16T01:06:50;5.22;;;2.00;;
26951;SDS011;14507;52.418;13.398;2024-01-16T01:09:16;4.35;;;2.00;;
26951;SDS011;14507;52.418;13.398;2024-01-16T01:11:42;8.05;;;2.30;;
26951;SDS011;14507;52.418;13.398;2024-01-16T01:14:08;8.60;;;2.40;;
26951;SDS011;14507;52.418;13.398;2024-01-16T01:16:33;4.95;;;2.72;;
26951;SDS011;14507;52.418;13.398;2024-01-16T01:18:59;6.10;;;2.97;;
26951;SDS011;14507;52.418;13.398;2024-01-16T01:21:25;9.40;;;2.30;;
26951;SDS011;14507;52.418;13.398;2024-01-16T01:23:51;6.57;;;2.70;;
26951;SDS011;14507;52.418;13.398;2024-01-16T01:26:16;4.53;;;2.20;;
26951;SDS011;14507;52.418;13.398;2024-01-16T01:28:45;5.95;;;2.20;;
26951;SDS011;14507;52.418;13.398;2024-01-16T01:31:11;8.07;;;2.35;;
26951;SDS011;14507;52.418;13.398;2024-01-16T01:33:37;7.65;;;2.13;;
26951;SDS011;14507;52.418;13.398;2024-01-16T01:36:04;7.10;;;2.75;;
26951;SDS011;14507;52.418;13.398;2024-01-16T01:38:30;5.53;;;2.30;;
26951;SDS011;14507;52.418;13.398;2024-01-16T01:40:56;6.65;;;2.08;;
26951;SDS011;14507;52.418;13.398;2024-01-16T01:43:25;6.82;;;2.47;;
26951;SDS011;14507;52.418;13.398;2024-01-16T01:46:01;6.70;;;2.42;;
26951;SDS011;14507;52.418;13.398;2024-01-16T01:48:36;10.82;;;3.45;;
26951;SDS011;14507;52.418;13.398;2024-01-16T01:51:04;10.18;;;3.80;;
26951;SDS011;14507;52.418;13.398;2024-01-16T01:53:31;9.48;;;3.63;;
26951;SDS011;14507;52.418;13.398;2024-01-16T01:56:00;10.98;;;3.85;;
26951;SDS011;14507;52.418;13.398;2024-01-16T01:58:28;11.73;;;2.60;;
26951;SDS011;14507;52.418;13.398;2024-01-16T02:00:54;9.35;;;2.70;;
26951;SDS011;14507;52.418;13.398;2024-01-16T02:03:20;6.38;;;2.85;;
26951;SDS011;14507;52.418;13.398;2024-01-16T02:05:48;5.65;;;1.90;;
26951;SDS011;14507;52.418;13.398;2024-01-16T02:08:14;7.28;;;2.08;;
26951;SDS011;14507;52.418;13.398;2024-01-16T02:10:40;5.70;;;2.10;;
26951;SDS011;14507;52.418;13.398;2024-01-16T02:13:10;4.78;;;1.98;;
26951;SDS011;14507;52.418;13.398;2024-01-16T02:15:36;6.32;;;1.98;;
26951;SDS011;14507;52.418;13.398;2024-01-16T02:18:04;5.88;;;2.10;;
26951;SDS011;14507;52.418;13.398;2024-01-16T02:20:30;6.28;;;1.67;;
26951;SDS011;14507;52.418;13.398;2024-01-16T02:22:56;9.05;;;2.00;;
26951;SDS011;14507;52.418;13.398;2024-01-16T02:25:25;2.75;;;1.67;;
26951;SDS011;14507;52.418;13.398;2024-01-16T02:27:51;6.95;;;1.92;;
26951;SDS011;14507;52.418;13.398;2024-01-16T02:30:17;7.00;;;2.00;;
26951;SDS011;14507;52.418;13.398;2024-01-16T02:32:43;5.95;;;1.92;;
26951;SDS011;14507;52.418;13.398;2024-01-16T02:35:08;5.05;;;2.20;;
26951;SDS011;14507;52.418;13.398;2024-01-16T02:37:35;8.75;;;2.47;;
26951;SDS011;14507;52.418;13.398;2024-01-16T02:40:00;6.50;;;2.42;;
26951;SDS011;14507;52.418;13.398;2024-01-16T02:42:31;6.97;;;2.70;;
26951;SDS011;14507;52.418;13.398;2024-01-16T02:44:57;6.97;;;3.08;;
26951;SDS011;14507;52.418;13.398;2024-01-16T02:47:22;8.85;;;3.28;;
26951;SDS011;14507;52.418;13.398;2024-01-16T02:49:48;10.85;;;3.65;;
26951;SDS011;14507;52.418;13.398;2024-01-16T02:52:14;10.40;;;3.80;;
26951;SDS011;14507;52.418;13.398;2024-01-16T02:54:40;10.65;;;3.60;;
26951;SDS011;14507;52.418;13.398;2024-01-16T02:57:05;9.68;;;3.08;;
26951;SDS011;14507;52.418;13.398;2024-01-16T02:59:31;6.47;;;3.03;;
26951;SDS011;14507;52.418;13.398;2024-01-16T03:01:56;8.52;;;3.17;;
26951;SDS011;14507;52.418;13.398;2024-01-16T03:04:22;7.00;;;2.83;;
26951;SDS011;14507;52.418;13.398;2024-01-16T03:06:48;9.38;;;3.55;;
26951;SDS011;14507;52.418;13.398;2024-01-16T03:09:14;9.68;;;2.80;;
26951;SDS011;14507;52.418;13.398;2024-01-16T03:11:39;7.85;;;3.20;;
26951;SDS011;14507;52.418;13.398;2024-01-16T03:14:05;9.82;;;2.95;;
26951;SDS011;14507;52.418;13.398;2024-01-16T03:16:31;6.53;;;2.45;;
26951;SDS011;14507;52.418;13.398;2024-01-16T03:18:57;5.90;;;2.70;;
26951;SDS011;14507;52.418;13.398;2024-01-16T03:21:23;9.05;;;2.85;;
26951;SDS011;14507;52.418;13.398;2024-01-16T03:23:48;8.50;;;2.85;;
26951;SDS011;14507;52.418;13.398;2024-01-16T03:26:15;4.63;;;2.05;;
26951;SDS011;14507;52.418;13.398;2024-01-16T03:28:41;7.45;;;2.40;;
26951;SDS011;14507;52.418;13.398;2024-01-16T03:31:07;11.52;;;2.80;;
26951;SDS011;14507;52.418;13.398;2024-01-16T03:33:33;9.50;;;2.97;;
26951;SDS011;14507;52.418;13.398;2024-01-16T03:36:06;9.80;;;3.33;;
26951;SDS011;14507;52.418;13.398;2024-01-16T03:38:34;8.15;;;2.78;;
26951;SDS011;14507;52.418;13.398;2024-01-16T03:41:01;6.68;;;2.40;;
26951;SDS011;14507;52.418;13.398;2024-01-16T03:43:28;5.28;;;2.38;;
26951;SDS011;14507;52.418;13.398;2024-01-16T03:45:56;5.10;;;2.22;;
26951;SDS011;14507;52.418;13.398;2024-01-16T03:50:48;5.53;;;2.20;;
26951;SDS011;14507;52.418;13.398;2024-01-16T03:53:13;6.15;;;2.22;;
26951;SDS011;14507;52.418;13.398;2024-01-16T03:55:39;5.32;;;2.20;;
26951;SDS011;14507;52.418;13.398;2024-01-16T03:58:05;5.80;;;2.13;;
26951;SDS011;14507;52.418;13.398;2024-01-16T04:00:31;5.57;;;2.38;;
26951;SDS011;14507;52.418;13.398;2024-01-16T04:02:57;6.07;;;2.42;;
26951;SDS011;14507;52.418;13.398;2024-01-16T04:05:22;6.20;;;2.10;;
26951;SDS011;14507;52.418;13.398;2024-01-16T04:07:48;5.95;;;2.50;;
26951;SDS011;14507;52.418;13.398;2024-01-16T04:10:14;9.57;;;2.50;;
26951;SDS011;14507;52.418;13.398;2024-01-16T04:12:39;5.15;;;2.17;;
26951;SDS011;14507;52.418;13.398;2024-01-16T04:15:05;6.57;;;2.45;;
26951;SDS011;14507;52.418;13.398;2024-01-16T04:17:31;5.55;;;2.38;;
26951;SDS011;14507;52.418;13.398;2024-01-16T04:19:57;9.25;;;2.63;;
26951;SDS011;14507;52.418;13.398;2024-01-16T04:22:23;6.25;;;2.80;;
26951;SDS011;14507;52.418;13.398;2024-01-16T04:24:48;5.10;;;2.47;;
26951;SDS011;14507;52.418;13.398;2024-01-16T04:27:14;4.40;;;2.13;;
26951;SDS011;14507;52.418;13.398;2024-01-16T04:29:40;8.75;;;2.97;;
26951;SDS011;14507;52.418;13.398;2024-01-16T04:32:05;7.43;;;2.65;;
26951;SDS011;14507;52.418;13.398;2024-01-16T04:34:31;4.30;;;2.08;;
26951;SDS011;14507;52.418;13.398;2024-01-16T04:36:56;5.97;;;2.30;;
26951;SDS011;14507;52.418;13.398;2024-01-16T04:39:22;6.35;;;2.20;;
26951;SDS011;14507;52.418;13.398;2024-01-16T04:41:48;6.35;;;2.65;;
26951;SDS011;14507;52.418;13.398;2024-01-16T04:44:14;6.00;;;2.55;;
26951;SDS011;14507;52.418;13.398;2024-01-16T04:46:40;7.18;;;2.63;;
26951;SDS011;14507;52.418;13.398;2024-01-16T04:49:05;8.90;;;3.40;;
26951;SDS011;14507;52.418;13.398;2024-01-16T04:51:31;8.43;;;3.40;;
26951;SDS011;14507;52.418;13.398;2024-01-16T04:53:57;11.38;;;3.75;;
26951;SDS011;14507;52.418;13.398;2024-01-16T04:56:22;10.32;;;3.17;;
26951;SDS011;14507;52.418;13.398;2024-01-16T04:58:48;5.57;;;3.00;;
26951;SDS011;14507;52.418;13.398;2024-01-16T05:01:13;8.48;;;3.58;;
26951;SDS011;14507;52.418;13.398;2024-01-16T05:03:39;9.05;;;3.95;;
26951;SDS011;14507;52.418;13.398;2024-01-16T05:06:05;7.35;;;3.60;;
26951;SDS011;14507;52.418;13.398;2024-01-16T05:08:38;8.27;;;3.22;;
26951;SDS011;14507;52.418;13.398;2024-01-16T05:11:04;6.05;;;3.38;;
26951;SDS011;14507;52.418;13.398;2024-01-16T05:13:30;9.43;;;3.45;;
26951;SDS011;14507;52.418;13.398;2024-01-16T05:15:55;12.70;;;3.33;;
26951;SDS011;14507;52.418;13.398;2024-01-16T05:18:21;8.43;;;2.90;;
26951;SDS011;14507;52.418;13.398;2024-01-16T05:20:46;9.27;;;3.38;;
26951;SDS011;14507;52.418;13.398;2024-01-16T05:23:12;9.15;;;3.40;;
26951;SDS011;14507;52.418;13.398;2024-01-16T05:25:38;10.10;;;3.17;;
26951;SDS011;14507;52.418;13.398;2024-01-16T05:28:03;13.70;;;3.67;;
26951;SDS011;14507;52.418;13.398;2024-01-16T05:30:29;11.23;;;3.60;;
26951;SDS011;14507;52.418;13.398;2024-01-16T05:32:55;8.77;;;3.20;;
26951;SDS011;14507;52.418;13.398;2024-01-16T05:35:25;12.77;;;3.83;;
26951;SDS011;14507;52.418;13.398;2024-01-16T05:37:52;6.85;;;3.70;;
26951;SDS011;14507;52.418;13.398;2024-01-16T05:40:18;13.32;;;3.95;;
26951;SDS011;14507;52.418;13.398;2024-01-16T05:42:44;9.13;;;3.55;;
26951;SDS011;14507;52.418;13.398;2024-01-16T05:45:10;11.95;;;3.78;;
26951;SDS011;14507;52.418;13.398;2024-01-16T05:47:36;12.43;;;3.92;;
26951;SDS011;14507;52.418;13.398;2024-01-16T05:50:01;9.32;;;3.88;;
26951;SDS011;14507;52.418;13.398;2024-01-16T05:52:27;8.13;;;3.90;;
26951;SDS011;14507;52.418;13.398;2024-01-16T05:54:53;8.48;;;3.50;;
26951;SDS011;14507;52.418;13.398;2024-01-16T05:57:22;7.40;;;3.30;;
26951;SDS011;14507;52.418;13.398;2024-01-16T05:59:48;5.70;;;2.97;;
26951;SDS011;14507;52.418;13.398;2024-01-16T06:02:13;8.05;;;3.85;;
26951;SDS011;14507;52.418;13.398;2024-01-16T06:04:39;8.00;;;3.47;;
26951;SDS011;14507;52.418;13.398;2024-01-16T06:07:05;9.15;;;4.65;;
26951;SDS011;14507;52.418;13.398;2024-01-16T06:09:33;7.30;;;4.03;;
26951;SDS011;14507;52.418;13.398;2024-01-16T06:12:05;7.53;;;4.10;;
26951;SDS011;14507;52.418;13.398;2024-01-16T06:14:32;7.93;;;4.00;;
26951;SDS011;14507;52.418;13.398;2024-01-16T06:16:57;9.38;;;4.00;;
26951;SDS011;14507;52.418;13.398;2024-01-16T06:19:23;14.73;;;4.25;;
26951;SDS011;14507;52.418;13.398;2024-01-16T06:21:49;6.10;;;3.75;;
26951;SDS011;14507;52.418;13.398;2024-01-16T06:24:14;7.78;;;3.95;;
26951;SDS011;14507;52.418;13.398;2024-01-16T06:26:40;8.75;;;3.65;;
26951;SDS011;14507;52.418;13.398;2024-01-16T06:29:07;8.77;;;3.88;;
26951;SDS011;14507;52.418;13.398;2024-01-16T06:31:33;7.60;;;3.88;;
26951;SDS011;14507;52.418;13.398;2024-01-16T06:33:58;7.10;;;4.28;;
26951;SDS011;14507;52.418;13.398;2024-01-16T06:36:24;9.60;;;3.90;;
26951;SDS011;14507;52.418;13.398;2024-01-16T06:38:50;8.30;;;3.58;;
26951;SDS011;14507;52.418;13.398;2024-01-16T06:41:15;6.03;;;3.58;;
26951;SDS011;14507;52.418;13.398;2024-01-16T06:43:41;7.28;;;3.50;;
26951;SDS011;14507;52.418;13.398;2024-01-16T06:46:07;7.20;;;3.65;;
26951;SDS011;14507;52.418;13.398;2024-01-16T06:48:34;8.38;;;4.00;;
26951;SDS011;14507;52.418;13.398;2024-01-16T06:51:02;7.63;;;4.25;;
26951;SDS011;14507;52.418;13.398;2024-01-16T06:53:27;8.68;;;4.15;;
26951;SDS011;14507;52.418;13.398;2024-01-16T06:55:53;9.98;;;4.28;;
26951;SDS011;14507;52.418;13.398;2024-01-16T06:58:19;9.25;;;4.30;;
26951;SDS011;14507;52.418;13.398;2024-01-16T07:00:46;10.40;;;4.28;;
26951;SDS011;14507;52.418;13.398;2024-01-16T07:03:12;8.70;;;4.22;;
26951;SDS011;14507;52.418;13.398;2024-01-16T07:05:38;8.60;;;4.25;;
26951;SDS011;14507;52.418;13.398;2024-01-16T07:08:08;7.90;;;4.07;;
26951;SDS011;14507;52.418;13.398;2024-01-16T07:10:34;12.30;;;5.00;;
26951;SDS011;14507;52.418;13.398;2024-01-16T07:13:00;8.25;;;4.00;;
26951;SDS011;14507;52.418;13.398;2024-01-16T07:15:26;11.48;;;4.97;;
26951;SDS011;14507;52.418;13.398;2024-01-16T07:17:52;12.05;;;4.90;;
26951;SDS011;14507;52.418;13.398;2024-01-16T07:20:18;11.35;;;5.78;;
26951;SDS011;14507;52.418;13.398;2024-01-16T07:22:43;10.25;;;5.20;;
26951;SDS011;14507;52.418;13.398;2024-01-16T07:25:09;10.27;;;5.72;;
26951;SDS011;14507;52.418;13.398;2024-01-16T07:27:35;12.80;;;4.93;;
26951;SDS011;14507;52.418;13.398;2024-01-16T07:30:01;8.90;;;4.85;;
26951;SDS011;14507;52.418;13.398;2024-01-16T07:32:29;9.05;;;5.00;;
26951;SDS011;14507;52.418;13.398;2024-01-16T07:34:55;10.13;;;4.70;;
26951;SDS011;14507;52.418;13.398;2024-01-16T07:37:21;9.20;;;4.88;;
26951;SDS011;14507;52.418;13.398;2024-01-16T07:39:47;9.73;;;5.07;;
26951;SDS011;14507;52.418;13.398;2024-01-16T07:42:12;10.88;;;5.57;;
26951;SDS011;14507;52.418;13.398;2024-01-16T07:44:38;11.55;;;6.28;;
26951;SDS011;14507;52.418;13.398;2024-01-16T07:47:04;11.23;;;6.05;;
26951;SDS011;14507;52.418;13.398;2024-01-16T07:49:30;10.70;;;5.95;;
26951;SDS011;14507;52.418;13.398;2024-01-16T07:51:55;10.57;;;5.85;;
26951;SDS011;14507;52.418;13.398;2024-01-16T07:54:21;15.85;;;6.65;;
26951;SDS011;14507;52.418;13.398;2024-01-16T07:56:47;16.90;;;6.93;;
26951;SDS011;14507;52.418;13.398;2024-01-16T07:59:13;17.40;;;6.40;;
26951;SDS011;14507;52.418;13.398;2024-01-16T08:01:39;14.52;;;6.13;;
26951;SDS011;14507;52.418;13.398;2024-01-16T08:04:04;14.05;;;6.90;;
26951;SDS011;14507;52.418;13.398;2024-01-16T08:06:30;11.57;;;6.53;;
26951;SDS011;14507;52.418;13.398;2024-01-16T08:08:56;12.70;;;6.25;;
26951;SDS011;14507;52.418;13.398;2024-01-16T08:11:22;13.73;;;7.32;;
26951;SDS011;14507;52.418;13.398;2024-01-16T08:13:48;16.05;;;7.30;;
26951;SDS011;14507;52.418;13.398;2024-01-16T08:16:13;11.85;;;6.32;;
26951;SDS011;14507;52.418;13.398;2024-01-16T08:18:39;14.95;;;7.50;;
26951;SDS011;14507;52.418;13.398;2024-01-16T08:21:05;12.25;;;6.78;;
26951;SDS011;14507;52.418;13.398;2024-01-16T08:23:30;12.40;;;6.88;;
26951;SDS011;14507;52.418;13.398;2024-01-16T08:25:56;10.88;;;6.60;;
26951;SDS011;14507;52.418;13.398;2024-01-16T08:28:22;16.40;;;7.63;;
26951;SDS011;14507;52.418;13.398;2024-01-16T08:30:49;12.05;;;6.63;;
26951;SDS011;14507;52.418;13.398;2024-01-16T08:33:15;12.75;;;7.13;;
26951;SDS011;14507;52.418;13.398;2024-01-16T08:35:41;15.77;;;7.47;;
26951;SDS011;14507;52.418;13.398;2024-01-16T08:38:07;16.45;;;7.43;;
26951;SDS011;14507;52.418;13.398;2024-01-16T08:40:32;16.58;;;6.82;;
26951;SDS011;14507;52.418;13.398;2024-01-16T08:42:58;12.27;;;6.35;;
26951;SDS011;14507;52.418;13.398;2024-01-16T08:45:23;15.95;;;7.15;;
26951;SDS011;14507;52.418;13.398;2024-01-16T08:47:51;12.87;;;6.40;;
26951;SDS011;14507;52.418;13.398;2024-01-16T08:50:17;10.55;;;6.47;;
26951;SDS011;14507;52.418;13.398;2024-01-16T08:52:42;12.23;;;6.25;;
26951;SDS011;14507;52.418;13.398;2024-01-16T08:55:08;14.93;;;6.97;;
26951;SDS011;14507;52.418;13.398;2024-01-16T08:57:34;11.32;;;6.47;;
26951;SDS011;14507;52.418;13.398;2024-01-16T09:00:02;14.73;;;6.50;;
26951;SDS011;14507;52.418;13.398;2024-01-16T09:02:30;18.27;;;8.60;;
26951;SDS011;14507;52.418;13.398;2024-01-16T09:04:56;17.45;;;7.05;;
26951;SDS011;14507;52.418;13.398;2024-01-16T09:07:23;16.05;;;7.10;;
26951;SDS011;14507;52.418;13.398;2024-01-16T09:09:49;14.57;;;7.80;;
26951;SDS011;14507;52.418;13.398;2024-01-16T09:12:15;13.75;;;7.22;;
26951;SDS011;14507;52.418;13.398;2024-01-16T09:14:41;16.92;;;7.43;;
26951;SDS011;14507;52.418;13.398;2024-01-16T09:17:06;16.65;;;7.82;;
26951;SDS011;14507;52.418;13.398;2024-01-16T09:19:32;14.98;;;8.10;;
26951;SDS011;14507;52.418;13.398;2024-01-16T09:21:58;15.38;;;7.65;;
26951;SDS011;14507;52.418;13.398;2024-01-16T09:24:23;17.35;;;7.25;;
26951;SDS011;14507;52.418;13.398;2024-01-16T09:26:49;15.82;;;7.68;;
26951;SDS011;14507;52.418;13.398;2024-01-16T09:29:15;15.35;;;7.55;;
26951;SDS011;14507;52.418;13.398;2024-01-16T09:31:41;23.08;;;8.00;;
26951;SDS011;14507;52.418;13.398;2024-01-16T09:34:07;16.10;;;7.68;;
26951;SDS011;14507;52.418;13.398;2024-01-16T09:36:32;17.23;;;8.27;;
26951;SDS011;14507;52.418;13.398;2024-01-16T09:39:01;16.75;;;8.35;;
26951;SDS011;14507;52.418;13.398;2024-01-16T09:41:27;19.23;;;8.20;;
26951;SDS011;14507;52.418;13.398;2024-01-16T09:43:53;17.63;;;7.95;;
26951;SDS011;14507;52.418;13.398;2024-01-16T09:46:20;15.05;;;7.00;;
26951;SDS011;14507;52.418;13.398;2024-01-16T09:48:49;14.57;;;7.35;;
26951;SDS011;14507;52.418;13.398;2024-01-16T09:51:17;18.45;;;8.25;;
26951;SDS011;14507;52.418;13.398;2024-01-16T09:53:43;14.55;;;7.45;;
26951;SDS011;14507;52.418;13.398;2024-01-16T09:56:14;18.38;;;7.55;;
26951;SDS011;14507;52.418;13.398;2024-01-16T09:58:41;19.02;;;7.70;;
26951;SDS011;14507;52.418;13.398;2024-01-16T10:01:08;18.45;;;7.40;;
26951;SDS011;14507;52.418;13.398;2024-01-16T10:03:34;17.10;;;7.30;;
26951;SDS011;14507;52.418;13.398;2024-01-16T10:06:04;12.32;;;6.75;;
26951;SDS011;14507;52.418;13.398;2024-01-16T10:08:32;14.13;;;6.82;;
26951;SDS011;14507;52.418;13.398;2024-01-16T10:10:58;14.93;;;7.07;;
26951;SDS011;14507;52.418;13.398;2024-01-16T10:13:25;15.88;;;7.15;;
26951;SDS011;14507;52.418;13.398;2024-01-16T10:15:51;13.32;;;6.43;;
26951;SDS011;14507;52.418;13.398;2024-01-16T10:18:23;14.52;;;6.57;;
26951;SDS011;14507;52.418;13.398;2024-01-16T10:20:52;20.63;;;6.18;;
26951;SDS011;14507;52.418;13.398;2024-01-16T10:23:22;15.85;;;5.78;;
26951;SDS011;14507;52.418;13.398;2024-01-16T10:28:39;16.73;;;5.40;;
26951;SDS011;14507;52.418;13.398;2024-01-16T10:31:07;10.45;;;5.22;;
26951;SDS011;14507;52.418;13.398;2024-01-16T10:33:33;12.32;;;5.30;;
26951;SDS011;14507;52.418;13.398;2024-01-16T10:36:11;12.05;;;4.65;;
26951;SDS011;14507;52.418;13.398;2024-01-16T10:38:39;10.60;;;4.32;;
26951;SDS011;14507;52.418;13.398;2024-01-16T10:41:15;10.57;;;4.60;;
26951;SDS011;14507;52.418;13.398;2024-01-16T10:43:50;12.98;;;4.45;;
26951;SDS011;14507;52.418;13.398;2024-01-16T10:46:29;10.73;;;4.25;;
26951;SDS011;14507;52.418;13.398;2024-01-16T10:49:04;16.23;;;3.75;;
26951;SDS011;14507;52.418;13.398;2024-01-16T10:51:30;12.75;;;4.10;;
26951;SDS011;14507;52.418;13.398;2024-01-16T10:54:00;10.27;;;3.53;;
26951;SDS011;14507;52.418;13.398;2024-01-16T10:56:33;15.52;;;4.20;;
26951;SDS011;14507;52.418;13.398;2024-01-16T10:59:06;11.25;;;4.13;;
26951;SDS011;14507;52.418;13.398;2024-01-16T11:01:43;12.73;;;3.83;;
26951;SDS011;14507;52.418;13.398;2024-01-16T11:04:13;8.95;;;3.45;;
26951;SDS011;14507;52.418;13.398;2024-01-16T11:06:39;5.90;;;3.10;;
26951;SDS011;14507;52.418;13.398;2024-01-16T11:09:06;14.13;;;3.67;;
26951;SDS011;14507;52.418;13.398;2024-01-16T11:11:32;11.10;;;4.03;;
26951;SDS011;14507;52.418;13.398;2024-01-16T11:13:59;11.43;;;3.83;;
26951;SDS011;14507;52.418;13.398;2024-01-16T11:16:28;11.43;;;4.05;;
26951;SDS011;14507;52.418;13.398;2024-01-16T11:18:56;7.20;;;2.80;;
26951;SDS011;14507;52.418;13.398;2024-01-16T11:21:22;11.30;;;3.00;;
26951;SDS011;14507;52.418;13.398;2024-01-16T11:23:48;11.40;;;3.80;;
26951;SDS011;14507;52.418;13.398;2024-01-16T11:26:30;13.35;;;3.28;;
26951;SDS011;14507;52.418;13.398;2024-01-16T11:29:47;8.73;;;3.30;;
26951;SDS011;14507;52.418;13.398;2024-01-16T11:31:53;8.68;;;3.10;;
26951;SDS011;14507;52.418;13.398;2024-01-16T11:37:16;14.23;;;4.03;;
26951;SDS011;14507;52.418;13.398;2024-01-16T11:39:54;15.07;;;4.35;;
26951;SDS011;14507;52.418;13.398;2024-01-16T11:42:46;10.88;;;4.43;;
26951;SDS011;14507;52.418;13.398;2024-01-16T11:48:13;16.98;;;4.85;;
26951;SDS011;14507;52.418;13.398;2024-01-16T11:50:40;15.90;;;4.82;;
26951;SDS011;14507;52.418;13.398;2024-01-16T11:53:06;12.50;;;5.10;;
26951;SDS011;14507;52.418;13.398;2024-01-16T11:55:38;12.80;;;4.32;;
26951;SDS011;14507;52.418;13.398;2024-01-16T12:01:11;16.30;;;4.85;;
26951;SDS011;14507;52.418;13.398;2024-01-16T12:03:37;13.90;;;5.10;;
26951;SDS011;14507;52.418;13.398;2024-01-16T12:06:03;14.52;;;5.28;;
26951;SDS011;14507;52.418;13.398;2024-01-16T12:08:31;14.07;;;5.18;;
26951;SDS011;14507;52.418;13.398;2024-01-16T12:10:57;12.55;;;5.18;;
26951;SDS011;14507;52.418;13.398;2024-01-16T12:13:24;15.70;;;4.95;;
26951;SDS011;14507;52.418;13.398;2024-01-16T12:15:59;10.35;;;4.82;;
26951;SDS011;14507;52.418;13.398;2024-01-16T12:18:31;13.40;;;5.10;;
26951;SDS011;14507;52.418;13.398;2024-01-16T12:20:57;16.70;;;4.80;;
26951;SDS011;14507;52.418;13.398;2024-01-16T12:23:23;15.23;;;4.85;;
26951;SDS011;14507;52.418;13.398;2024-01-16T12:25:51;17.83;;;5.50;;
26951;SDS011;14507;52.418;13.398;2024-01-16T12:28:20;16.00;;;4.93;;
26951;SDS011;14507;52.418;13.398;2024-01-16T12:30:50;8.65;;;4.40;;
26951;SDS011;14507;52.418;13.398;2024-01-16T12:33:21;10.70;;;4.43;;
26951;SDS011;14507;52.418;13.398;2024-01-16T12:35:47;14.90;;;5.00;;
26951;SDS011;14507;52.418;13.398;2024-01-16T12:38:14;14.93;;;4.90;;
26951;SDS011;14507;52.418;13.398;2024-01-16T12:43:19;20.20;;;5.15;;
26951;SDS011;14507;52.418;13.398;2024-01-16T12:45:45;15.45;;;5.18;;
26951;SDS011;14507;52.418;13.398;2024-01-16T12:48:11;17.95;;;4.53;;
26951;SDS011;14507;52.418;13.398;2024-01-16T12:50:37;16.17;;;4.40;;
26951;SDS011;14507;52.418;13.398;2024-01-16T12:53:06;10.75;;;5.20;;
26951;SDS011;14507;52.418;13.398;2024-01-16T12:55:34;12.77;;;4.60;;
26951;SDS011;14507;52.418;13.398;2024-01-16T12:58:14;13.60;;;4.18;;
26951;SDS011;14507;52.418;13.398;2024-01-16T13:00:47;14.32;;;4.45;;
26951;SDS011;14507;52.418;13.398;2024-01-16T13:03:15;16.50;;;4.43;;
26951;SDS011;14507;52.418;13.398;2024-01-16T13:05:42;15.50;;;4.93;;
26951;SDS011;14507;52.418;13.398;2024-01-16T13:08:08;12.60;;;4.68;;
26951;SDS011;14507;52.418;13.398;2024-01-16T13:10:34;18.13;;;4.25;;
26951;SDS011;14507;52.418;13.398;2024-01-16T13:13:21;15.90;;;4.45;;
26951;SDS011;14507;52.418;13.398;2024-01-16T13:15:47;13.95;;;4.45;;
26951;SDS011;14507;52.418;13.398;2024-01-16T13:18:23;9.70;;;3.90;;
26951;SDS011;14507;52.418;13.398;2024-01-16T13:20:54;10.30;;;4.53;;
26951;SDS011;14507;52.418;13.398;2024-01-16T13:23:21;14.20;;;4.32;;
26951;SDS011;14507;52.418;13.398;2024-01-16T13:25:48;18.42;;;4.45;;
26951;SDS011;14507;52.418;13.398;2024-01-16T13:28:15;14.40;;;4.95;;
26951;SDS011;14507;52.418;13.398;2024-01-16T13:30:42;17.83;;;4.38;;
26951;SDS011;14507;52.418;13.398;2024-01-16T13:33:08;15.25;;;4.00;;
26951;SDS011;14507;52.418;13.398;2024-01-16T13:35:35;14.07;;;3.88;;
26951;SDS011;14507;52.418;13.398;2024-01-16T13:40:29;11.90;;;4.22;;
26951;SDS011;14507;52.418;13.398;2024-01-16T13:42:55;15.10;;;4.80;;
26951;SDS011;14507;52.418;13.398;2024-01-16T13:45:20;10.05;;;4.25;;
26951;SDS011;14507;52.418;13.398;2024-01-16T13:47:46;20.70;;;4.97;;
26951;SDS011;14507;52.418;13.398;2024-01-16T13:50:12;12.82;;;4.10;;
26951;SDS011;14507;52.418;13.398;2024-01-16T13:52:37;10.35;;;4.30;;
26951;SDS011;14507;52.418;13.398;2024-01-16T13:55:05;10.77;;;4.18;;
26951;SDS011;14507;52.418;13.398;2024-01-16T13:57:31;11.75;;;4.25;;
26951;SDS011;14507;52.418;13.398;2024-01-16T13:59:57;17.33;;;4.07;;
26951;SDS011;14507;52.418;13.398;2024-01-16T14:02:23;13.45;;;3.97;;
26951;SDS011;14507;52.418;13.398;2024-01-16T14:04:49;16.95;;;4.78;;
26951;SDS011;14507;52.418;13.398;2024-01-16T14:07:16;9.75;;;3.40;;
26951;SDS011;14507;52.418;13.398;2024-01-16T14:09:41;10.43;;;4.03;;
26951;SDS011;14507;52.418;13.398;2024-01-16T14:12:07;9.70;;;3.50;;
26951;SDS011;14507;52.418;13.398;2024-01-16T14:14:34;17.77;;;5.00;;
26951;SDS011;14507;52.418;13.398;2024-01-16T14:16:59;12.10;;;4.15;;
26951;SDS011;14507;52.418;13.398;2024-01-16T14:19:26;13.60;;;3.85;;
26951;SDS011;14507;52.418;13.398;2024-01-16T14:21:53;8.93;;;3.50;;
26951;SDS011;14507;52.418;13.398;2024-01-16T14:24:18;11.25;;;3.53;;
26951;SDS011;14507;52.418;13.398;2024-01-16T14:26:44;12.77;;;3.70;;
26951;SDS011;14507;52.418;13.398;2024-01-16T14:29:10;12.57;;;3.50;;
26951;SDS011;14507;52.418;13.398;2024-01-16T14:31:36;15.38;;;4.15;;
26951;SDS011;14507;52.418;13.398;2024-01-16T14:34:02;13.57;;;4.32;;
26951;SDS011;14507;52.418;13.398;2024-01-16T14:36:28;10.75;;;3.63;;
26951;SDS011;14507;52.418;13.398;2024-01-16T14:38:54;8.60;;;3.63;;
26951;SDS011;14507;52.418;13.398;2024-01-16T14:41:21;9.70;;;3.25;;
26951;SDS011;14507;52.418;13.398;2024-01-16T14:43:47;10.93;;;3.47;;
26951;SDS011;14507;52.418;13.398;2024-01-16T14:46:13;16.90;;;4.07;;